CheckWX is a tool to help pilots better visualize weather data.  It is not intended as a substitute for an official pre-flight weather briefing.

12:27:46 UTC

LFLL TAF
Lyon Saint-Exupéry Airport
Lyon, France
TAF LFLL 261100Z 2612/2718 35020KT CAVOK TEMPO 2612/2619 35025G35KT BECMG 2619/2621 36009KT TEMPO 2712/2718 35015G25KT

Mar-26@
12:00 UTC

Mar-26 @ 12:00 UTC

Mar-26@
19:00 UTC

Mar-26 @ 19:00 UTC

TAF LFLL 261100Z 2612/2718 35020KT CAVOK
Wind
  • 350° at 20 KTS
Conditions
No significant weather
Cloud Levels
  • No significant clouds

Mar-26@
12:00 UTC

Mar-26 @ 12:00 UTC

Mar-26@
19:00 UTC

Mar-26 @ 19:00 UTC

TEMPO 2612/2619 35025G35KT

Temporary

Temporary Changes expected for less than half the time period

Wind
  • 350° at 25 KTS
  • {Gusting to 35 KTS

Mar-26@
19:00 UTC

Mar-26 @ 19:00 UTC

Mar-27@
18:00 UTC

Mar-27 @ 18:00 UTC

BECMG 2619/2621 36009KT

Becoming

Becoming Conditions expected by Tue, Mar 26, 2019 @ 21:00 UTC

Wind
  • 360° at 9 KTS
Conditions
No significant weather
Cloud Levels
  • No significant clouds

Mar-27@
12:00 UTC

Mar-27 @ 12:00 UTC

Mar-27@
18:00 UTC

Mar-27 @ 18:00 UTC

TEMPO 2712/2718 35015G25KT

Temporary

Temporary Changes expected for less than half the time period

Wind
  • 350° at 15 KTS
  • {Gusting to 25 KTS